Station: EBSP - 02/03/2024 17:51Z (il y a 24 minutes)
EBSP 021750Z AUTO 15013KT CAVOK 08/04 Q0998
Vent du 150º - 13 kt
Visibilité > 10 km et plafond haut ou pas de nuages significatifs
Température: +08ºC - Point de rosée: +04ºC - QNH: 998 hPa